createdAt,value
2017-09-24T00:01:35.174Z,13.43
2017-09-24T00:04:04.291Z,13.42
2017-09-24T00:06:32.651Z,13.35
2017-09-24T00:09:01.750Z,13.34
2017-09-24T00:11:30.860Z,13.45
2017-09-24T00:13:59.224Z,13.51
2017-09-24T00:16:28.324Z,13.51
2017-09-24T00:18:57.426Z,13.56
2017-09-24T00:21:26.561Z,13.54
2017-09-24T00:23:54.908Z,13.51
2017-09-24T00:26:24.019Z,13.51
2017-09-24T00:28:52.629Z,13.63
2017-09-24T00:31:20.967Z,13.66
2017-09-24T00:33:50.072Z,13.60
2017-09-24T00:36:19.197Z,13.57
2017-09-24T00:38:47.523Z,13.39
2017-09-24T00:41:15.859Z,13.46
2017-09-24T00:43:44.226Z,13.51
2017-09-24T00:46:12.556Z,13.63
2017-09-24T00:48:40.901Z,13.74
2017-09-24T00:51:09.272Z,13.76
2017-09-24T00:53:37.614Z,13.72
2017-09-24T00:56:05.944Z,13.80
2017-09-24T00:58:34.314Z,13.76
2017-09-24T01:01:02.648Z,13.67
2017-09-24T01:03:31.007Z,13.75
2017-09-24T01:05:59.339Z,13.76
2017-09-24T01:08:27.667Z,13.76
2017-09-24T01:10:56.032Z,13.83
2017-09-24T01:13:25.387Z,13.77
2017-09-24T01:15:54.495Z,13.69
2017-09-24T01:18:23.623Z,13.72
2017-09-24T01:20:51.959Z,13.68
2017-09-24T01:23:21.059Z,13.72
2017-09-24T01:25:50.178Z,13.49
2017-09-24T01:28:19.527Z,13.57
2017-09-24T01:30:47.856Z,13.46
2017-09-24T01:33:16.345Z,13.33
2017-09-24T01:35:44.803Z,13.29
2017-09-24T01:38:13.946Z,13.48
2017-09-24T01:40:42.391Z,13.58
2017-09-24T01:43:11.534Z,13.66
2017-09-24T01:45:39.900Z,13.69
2017-09-24T01:48:08.340Z,13.63
2017-09-24T01:50:37.503Z,13.73
2017-09-24T01:53:05.936Z,13.67
2017-09-24T01:55:34.450Z,13.67
2017-09-24T01:58:04.594Z,13.74
2017-09-24T02:00:33.010Z,13.64
2017-09-24T02:03:02.144Z,13.80
2017-09-24T02:05:30.475Z,13.74
2017-09-24T02:07:58.814Z,13.70
2017-09-24T02:10:27.175Z,13.77
2017-09-24T02:12:55.519Z,13.83
2017-09-24T02:15:23.856Z,13.81
2017-09-24T02:17:52.215Z,13.70
2017-09-24T02:20:20.551Z,13.75
2017-09-24T02:22:48.885Z,13.82
2017-09-24T02:25:17.255Z,13.92
2017-09-24T02:27:45.600Z,13.91
2017-09-24T02:30:13.940Z,13.84
2017-09-24T02:32:42.295Z,13.77
2017-09-24T02:35:10.632Z,13.65
2017-09-24T02:37:38.960Z,13.68
2017-09-24T02:40:07.316Z,13.75
2017-09-24T02:42:36.430Z,13.72
2017-09-24T02:45:05.534Z,13.67
2017-09-24T02:47:33.895Z,13.76
2017-09-24T02:50:03.012Z,13.81
2017-09-24T02:52:31.355Z,13.84
2017-09-24T02:54:59.720Z,13.83
2017-09-24T02:57:28.064Z,13.93
2017-09-24T02:59:56.400Z,13.93
2017-09-24T03:02:25.616Z,13.91
2017-09-24T03:04:54.714Z,13.86
2017-09-24T03:07:23.823Z,13.81
2017-09-24T03:09:52.184Z,13.86
2017-09-24T03:12:20.523Z,13.96
2017-09-24T03:14:48.860Z,13.96
2017-09-24T03:17:17.990Z,14.05
2017-09-24T03:19:46.345Z,14.06
2017-09-24T03:22:14.676Z,14.14
2017-09-24T03:24:43.061Z,14.13
2017-09-24T03:27:11.404Z,14.10
2017-09-24T03:29:39.740Z,14.14
2017-09-24T03:32:08.113Z,14.09
2017-09-24T03:34:36.452Z,14.07
2017-09-24T03:37:04.783Z,14.04
2017-09-24T03:39:33.912Z,13.97
2017-09-24T03:42:02.243Z,13.87
2017-09-24T03:44:30.601Z,13.85
2017-09-24T03:46:58.967Z,13.90
2017-09-24T03:49:27.318Z,13.85
2017-09-24T03:51:55.659Z,13.75
2017-09-24T03:54:24.015Z,13.69
2017-09-24T03:56:52.346Z,13.74
2017-09-24T03:59:21.451Z,13.74
2017-09-24T04:01:50.588Z,13.76
2017-09-24T04:04:18.924Z,13.83
2017-09-24T04:06:48.053Z,13.82
2017-09-24T04:09:16.453Z,13.82
2017-09-24T04:11:44.795Z,13.86
2017-09-24T04:14:13.890Z,13.82
2017-09-24T04:16:43.025Z,13.86
2017-09-24T04:19:11.358Z,13.93
2017-09-24T04:21:40.468Z,13.90
2017-09-24T04:24:09.589Z,13.77
2017-09-24T04:26:37.920Z,13.77
2017-09-24T04:29:06.252Z,13.81
2017-09-24T04:31:34.620Z,13.87
2017-09-24T04:34:02.962Z,13.91
2017-09-24T04:36:31.312Z,13.85
2017-09-24T04:38:59.688Z,13.78
2017-09-24T04:41:28.022Z,13.77
2017-09-24T04:43:57.123Z,13.81
2017-09-24T04:46:27.497Z,13.59
2017-09-24T04:48:55.831Z,13.65
2017-09-24T04:51:24.949Z,13.71
2017-09-24T04:53:53.321Z,13.70
2017-09-24T04:56:21.655Z,13.80
2017-09-24T04:58:49.999Z,13.83
2017-09-24T05:01:18.359Z,13.77
2017-09-24T05:03:46.696Z,13.85
2017-09-24T05:06:15.037Z,13.75
2017-09-24T05:08:43.406Z,13.87
2017-09-24T05:11:11.735Z,13.97
2017-09-24T05:13:40.068Z,14.03
2017-09-24T05:16:08.423Z,14.10
2017-09-24T05:18:37.523Z,14.04
2017-09-24T05:21:06.626Z,13.98
2017-09-24T05:23:35.749Z,13.98
2017-09-24T05:26:04.075Z,13.90
2017-09-24T05:28:32.413Z,14.01
2017-09-24T05:31:00.782Z,14.01
2017-09-24T05:33:29.125Z,14.09
2017-09-24T05:35:58.231Z,14.10
2017-09-24T05:38:27.355Z,14.16
2017-09-24T05:40:55.688Z,14.21
2017-09-24T05:43:24.025Z,14.17
2017-09-24T05:45:52.383Z,14.19
2017-09-24T05:48:21.486Z,14.26
2017-09-24T05:50:50.588Z,14.22
2017-09-24T05:53:18.948Z,14.24
2017-09-24T05:55:48.055Z,14.30
2017-09-24T05:58:17.151Z,14.29
2017-09-24T06:00:46.283Z,14.25
2017-09-24T06:03:14.618Z,14.23
2017-09-24T06:05:42.950Z,14.22
2017-09-24T06:08:11.321Z,14.36
2017-09-24T06:10:39.687Z,14.34
2017-09-24T06:13:08.031Z,14.38
2017-09-24T06:15:37.203Z,14.42
2017-09-24T06:18:05.543Z,14.43
2017-09-24T06:20:33.882Z,14.39
2017-09-24T06:23:02.255Z,14.39
2017-09-24T06:25:30.586Z,14.50
2017-09-24T06:27:58.919Z,14.52
2017-09-24T06:30:27.289Z,14.52
2017-09-24T06:32:55.642Z,14.50
2017-09-24T06:35:23.976Z,14.53
2017-09-24T06:37:53.120Z,14.60
2017-09-24T06:40:21.450Z,14.49
2017-09-24T06:42:50.759Z,14.41
2017-09-24T06:45:19.214Z,14.42
2017-09-24T06:47:47.559Z,14.50
2017-09-24T06:50:15.894Z,14.56
2017-09-24T06:52:44.259Z,14.67
2017-09-24T06:55:12.604Z,14.76
2017-09-24T06:57:40.936Z,14.78
2017-09-24T07:00:09.295Z,14.82
2017-09-24T07:02:37.627Z,14.80
2017-09-24T07:05:05.987Z,14.89
2017-09-24T07:07:35.146Z,14.97
2017-09-24T07:10:03.471Z,15.00
2017-09-24T07:12:32.577Z,14.98
2017-09-24T07:15:01.703Z,14.93
2017-09-24T07:17:30.044Z,15.03
2017-09-24T07:19:59.138Z,15.05
2017-09-24T07:22:28.272Z,15.17
2017-09-24T07:24:56.599Z,15.23
2017-09-24T07:27:24.936Z,15.32
2017-09-24T07:29:53.304Z,15.40
2017-09-24T07:32:21.644Z,15.36
2017-09-24T07:34:49.983Z,15.43
2017-09-24T07:37:18.566Z,15.40
2017-09-24T07:39:46.921Z,15.54
2017-09-24T07:42:15.251Z,15.49
2017-09-24T07:44:43.621Z,15.48
2017-09-24T07:47:11.955Z,15.51
2017-09-24T07:49:41.055Z,15.63
2017-09-24T07:52:10.182Z,15.69
2017-09-24T07:54:38.523Z,15.61
2017-09-24T07:57:07.653Z,15.56
2017-09-24T07:59:36.041Z,15.68
2017-09-24T08:02:04.372Z,15.90
2017-09-24T08:04:32.707Z,16.12
2017-09-24T08:07:01.077Z,16.09
2017-09-24T08:09:29.416Z,16.17
2017-09-24T08:11:58.519Z,16.38
2017-09-24T08:14:27.655Z,16.55
2017-09-24T08:16:55.990Z,16.62
2017-09-24T08:19:24.322Z,16.72
2017-09-24T08:21:52.683Z,16.85
2017-09-24T08:24:21.023Z,16.89
2017-09-24T08:26:49.359Z,17.01
2017-09-24T08:29:17.724Z,17.13
2017-09-24T08:31:46.053Z,17.10
2017-09-24T08:34:14.391Z,17.21
2017-09-24T08:36:42.751Z,17.35
2017-09-24T08:39:11.852Z,17.41
2017-09-24T08:41:40.194Z,17.54
2017-09-24T08:44:08.561Z,17.47
2017-09-24T08:46:36.904Z,17.49
2017-09-24T08:49:05.245Z,17.85
2017-09-24T08:51:33.602Z,18.12
2017-09-24T08:54:01.932Z,18.35
2017-09-24T08:56:30.268Z,18.59
2017-09-24T08:58:58.923Z,18.88
2017-09-24T09:01:27.254Z,19.10
2017-09-24T09:03:56.378Z,19.16
2017-09-24T09:06:24.757Z,19.29
2017-09-24T09:08:53.099Z,19.44
2017-09-24T09:11:21.437Z,19.50
2017-09-24T09:13:49.807Z,19.52
2017-09-24T09:16:18.139Z,19.65
2017-09-24T09:18:46.504Z,19.81
2017-09-24T09:21:14.895Z,20.08
2017-09-24T09:23:43.236Z,20.35
2017-09-24T09:26:11.602Z,20.52
2017-09-24T09:28:39.960Z,20.56
2017-09-24T09:31:09.067Z,20.56
2017-09-24T09:33:38.189Z,20.65
2017-09-24T09:36:06.560Z,20.62
2017-09-24T09:38:34.895Z,20.50
2017-09-24T09:41:03.240Z,20.52
2017-09-24T09:43:45.558Z,20.54
2017-09-24T09:59:55.711Z,20.68
2017-09-24T10:02:24.048Z,20.69
2017-09-24T10:04:53.164Z,20.70
2017-09-24T10:07:39.243Z,20.77
2017-09-24T10:10:16.855Z,20.86
2017-09-24T10:12:45.988Z,20.96
2017-09-24T10:15:14.323Z,21.09
2017-09-24T10:17:44.103Z,21.14
2017-09-24T10:20:12.468Z,21.22
2017-09-24T10:22:41.662Z,21.32
2017-09-24T10:25:10.016Z,21.39
2017-09-24T10:27:38.380Z,21.48
2017-09-24T10:30:25.112Z,21.51
2017-09-24T10:32:53.476Z,21.66
2017-09-24T10:35:22.578Z,21.38
2017-09-24T10:37:51.824Z,21.35
2017-09-24T10:40:20.208Z,21.22
2017-09-24T10:42:48.551Z,21.29
2017-09-24T10:45:16.917Z,21.36
2017-09-24T10:47:46.026Z,21.34
2017-09-24T10:50:14.355Z,21.28
2017-09-24T10:52:42.687Z,21.22
2017-09-24T10:55:11.057Z,21.22
2017-09-24T10:57:40.152Z,21.28
2017-09-24T11:00:08.498Z,21.37
2017-09-24T11:02:36.863Z,21.46
2017-09-24T11:05:05.191Z,21.61
2017-09-24T11:07:34.285Z,21.69
2017-09-24T11:10:03.419Z,21.87
2017-09-24T11:12:31.755Z,21.85
2017-09-24T11:15:00.082Z,21.82
2017-09-24T11:17:28.464Z,21.86
2017-09-24T11:19:56.803Z,21.94
2017-09-24T11:22:25.899Z,21.75
2017-09-24T11:24:55.038Z,22.06
2017-09-24T11:27:23.367Z,22.12
2017-09-24T11:29:51.707Z,22.31
2017-09-24T11:32:20.076Z,22.48
2017-09-24T11:34:48.402Z,21.90
2017-09-24T11:37:16.739Z,22.07
2017-09-24T11:39:45.092Z,22.27
2017-09-24T11:42:14.194Z,22.03
2017-09-24T11:44:42.527Z,21.65
2017-09-24T11:47:10.884Z,21.96
2017-09-24T11:49:39.231Z,22.12
2017-09-24T11:52:07.566Z,22.40
2017-09-24T11:54:36.055Z,21.89
2017-09-24T11:57:04.396Z,22.25
2017-09-24T11:59:32.736Z,22.54
2017-09-24T12:02:01.096Z,22.63
2017-09-24T12:04:29.456Z,22.77
2017-09-24T12:06:57.795Z,23.03
2017-09-24T12:09:26.152Z,23.22
2017-09-24T12:11:55.263Z,23.22
2017-09-24T12:14:24.440Z,23.32
2017-09-24T12:16:52.909Z,23.39
2017-09-24T12:19:21.339Z,22.83
2017-09-24T12:21:49.701Z,23.22
2017-09-24T12:24:18.810Z,23.47
2017-09-24T12:26:47.931Z,23.70
2017-09-24T12:29:16.287Z,24.08
2017-09-24T12:31:45.434Z,24.52
2017-09-24T12:34:13.899Z,24.61
2017-09-24T12:36:42.231Z,24.07
2017-09-24T12:39:10.624Z,24.03
2017-09-24T12:41:39.715Z,23.58
2017-09-24T12:44:08.817Z,23.36
2017-09-24T12:46:37.943Z,23.22
2017-09-24T12:49:06.272Z,23.12
2017-09-24T12:51:34.614Z,23.29
2017-09-24T12:54:02.979Z,23.65
2017-09-24T12:56:31.307Z,23.85
2017-09-24T12:58:59.655Z,24.25
2017-09-24T13:01:28.008Z,24.88
2017-09-24T13:03:57.106Z,25.62
2017-09-24T13:06:26.202Z,26.06
2017-09-24T13:08:55.336Z,26.79
2017-09-24T13:11:23.673Z,26.60
2017-09-24T13:13:52.763Z,26.11
2017-09-24T13:16:21.125Z,26.28
2017-09-24T13:18:49.455Z,26.35
2017-09-24T13:21:17.786Z,27.41
2017-09-24T13:23:46.143Z,28.07
2017-09-24T13:26:14.511Z,28.54
2017-09-24T13:28:42.862Z,27.54
2017-09-24T13:31:11.956Z,27.01
2017-09-24T13:33:41.054Z,26.09
2017-09-24T13:36:10.192Z,25.34
2017-09-24T13:38:38.528Z,24.72
2017-09-24T13:41:07.620Z,24.50
2017-09-24T13:43:36.767Z,24.19
2017-09-24T13:46:05.099Z,23.84
2017-09-24T13:48:34.204Z,24.16
2017-09-24T13:51:03.336Z,24.48
2017-09-24T13:53:31.670Z,24.82
2017-09-24T13:56:00.781Z,25.41
2017-09-24T13:58:29.911Z,25.11
2017-09-24T14:00:58.239Z,24.52
2017-09-24T14:03:26.591Z,24.31
2017-09-24T14:05:55.721Z,23.89
2017-09-24T14:08:24.836Z,23.53
2017-09-24T14:10:53.939Z,22.73
2017-09-24T14:13:23.123Z,22.71
2017-09-24T14:15:52.228Z,22.84
2017-09-24T14:18:21.328Z,22.64
2017-09-24T14:20:51.376Z,23.36
2017-09-24T14:23:19.722Z,23.61
2017-09-24T14:25:48.827Z,25.03
2017-09-24T14:28:17.956Z,25.75
2017-09-24T14:30:46.308Z,25.99
2017-09-24T14:33:15.403Z,25.62
2017-09-24T14:35:44.533Z,25.43
2017-09-24T14:38:12.874Z,25.25
2017-09-24T14:40:41.972Z,25.07
2017-09-24T14:43:11.100Z,24.58
2017-09-24T14:45:39.428Z,23.17
2017-09-24T14:48:07.784Z,23.32
2017-09-24T14:50:36.113Z,23.28
2017-09-24T14:53:05.214Z,23.56
2017-09-24T14:55:34.354Z,23.67
2017-09-24T14:58:02.687Z,23.74
2017-09-24T15:00:31.787Z,23.85
2017-09-24T15:03:00.908Z,24.02
2017-09-24T15:05:29.264Z,23.78
2017-09-24T15:07:58.364Z,23.82
2017-09-24T15:10:27.459Z,23.81
2017-09-24T15:12:56.605Z,23.77
2017-09-24T15:15:24.956Z,23.73
2017-09-24T15:17:53.300Z,23.56
2017-09-24T15:20:21.796Z,23.47
2017-09-24T15:22:52.177Z,23.31
2017-09-24T15:25:20.545Z,23.02
2017-09-24T15:27:48.876Z,22.81
2017-09-24T15:30:17.238Z,22.77
2017-09-24T15:32:45.564Z,22.69
2017-09-24T15:35:14.698Z,22.39
2017-09-24T15:37:43.045Z,22.21
2017-09-24T15:40:11.387Z,21.79
2017-09-24T15:42:39.752Z,21.31
2017-09-24T15:45:08.091Z,20.96
2017-09-24T15:47:36.440Z,20.61
2017-09-24T15:50:05.577Z,20.58
2017-09-24T15:52:33.937Z,20.31
2017-09-24T15:55:03.033Z,20.05
2017-09-24T15:57:32.163Z,19.78
2017-09-24T16:00:00.499Z,19.61
2017-09-24T16:02:29.623Z,19.59
2017-09-24T16:04:57.951Z,19.37
2017-09-24T16:07:26.285Z,19.30
2017-09-24T16:09:54.645Z,19.30
2017-09-24T16:12:23.762Z,19.20
2017-09-24T16:14:52.107Z,19.07
2017-09-24T16:17:20.472Z,18.83
2017-09-24T16:19:48.819Z,18.81
2017-09-24T16:22:17.196Z,18.60
2017-09-24T16:24:45.536Z,18.72
2017-09-24T16:27:14.630Z,18.71
2017-09-24T16:29:43.779Z,18.63
2017-09-24T16:32:12.112Z,18.65
2017-09-24T16:34:40.469Z,18.70
2017-09-24T16:37:08.800Z,18.80
2017-09-24T16:39:37.143Z,18.79
2017-09-24T16:42:05.505Z,18.71
2017-09-24T16:44:33.835Z,18.62
2017-09-24T16:47:02.168Z,18.64
2017-09-24T16:49:30.537Z,18.63
2017-09-24T16:51:58.871Z,18.66
2017-09-24T16:54:27.978Z,18.62
2017-09-24T16:56:56.533Z,18.62
2017-09-24T16:59:24.867Z,18.59
2017-09-24T17:01:53.208Z,18.56
2017-09-24T17:04:22.346Z,18.54
2017-09-24T17:06:50.676Z,18.53
2017-09-24T17:09:19.007Z,18.50
2017-09-24T17:11:47.368Z,18.40
2017-09-24T17:14:15.699Z,18.30
2017-09-24T17:16:44.069Z,18.30
2017-09-24T17:19:12.406Z,18.21
2017-09-24T17:21:40.775Z,18.09
2017-09-24T17:24:09.887Z,18.06
2017-09-24T17:26:38.230Z,17.92
2017-09-24T17:29:06.601Z,17.87
2017-09-24T17:31:34.980Z,17.93
2017-09-24T17:34:03.318Z,17.89
2017-09-24T17:36:31.660Z,17.90
2017-09-24T17:39:00.792Z,17.83
2017-09-24T17:41:29.138Z,17.80
2017-09-24T17:43:58.279Z,17.71
2017-09-24T17:46:26.626Z,17.76
2017-09-24T17:48:55.770Z,17.72
2017-09-24T17:51:24.117Z,17.70
2017-09-24T17:53:52.464Z,17.69
2017-09-24T17:56:20.833Z,17.66
2017-09-24T17:58:49.184Z,17.58
2017-09-24T18:01:17.533Z,17.56
2017-09-24T18:03:45.910Z,17.58
2017-09-24T18:06:15.033Z,17.55
2017-09-24T18:08:43.366Z,17.52
2017-09-24T18:11:11.881Z,17.54
2017-09-24T18:13:40.207Z,17.48
2017-09-24T18:16:08.597Z,17.53
2017-09-24T18:18:36.943Z,17.55
2017-09-24T18:21:05.287Z,17.55
2017-09-24T18:23:34.425Z,17.55
2017-09-24T18:26:02.758Z,17.46
2017-09-24T18:28:31.855Z,17.40
2017-09-24T18:31:00.985Z,17.39
2017-09-24T18:33:29.331Z,17.36
2017-09-24T18:35:58.431Z,17.36
2017-09-24T18:38:27.586Z,17.32
2017-09-24T18:40:55.924Z,17.40
2017-09-24T18:43:25.046Z,17.39
2017-09-24T18:45:53.408Z,17.24
2017-09-24T18:48:21.757Z,17.30
2017-09-24T18:50:50.129Z,17.27
2017-09-24T18:53:18.536Z,17.21
2017-09-24T18:55:47.653Z,17.25
2017-09-24T18:58:15.982Z,17.26
2017-09-24T19:00:44.347Z,17.31
2017-09-24T19:03:12.694Z,17.27
2017-09-24T19:05:41.036Z,17.23
2017-09-24T19:08:09.388Z,17.15
2017-09-24T19:10:37.731Z,17.11
2017-09-24T19:13:06.065Z,17.09
2017-09-24T19:15:34.430Z,17.16
2017-09-24T19:18:02.765Z,17.18
2017-09-24T19:20:31.886Z,17.23
2017-09-24T19:23:00.250Z,17.26
2017-09-24T19:25:28.615Z,17.28
2017-09-24T19:27:57.724Z,17.25
2017-09-24T19:30:26.859Z,17.28
2017-09-24T19:32:55.210Z,17.29
2017-09-24T19:35:23.574Z,17.27
2017-09-24T19:37:52.683Z,17.31
2017-09-24T19:40:21.030Z,17.31
2017-09-24T19:42:49.388Z,17.30
2017-09-24T19:45:17.749Z,17.29
2017-09-24T19:47:46.092Z,17.25
2017-09-24T19:50:15.227Z,17.24
2017-09-24T19:52:43.571Z,17.18
2017-09-24T19:55:12.686Z,17.19
2017-09-24T19:57:41.063Z,17.19
2017-09-24T20:00:09.405Z,17.19
2017-09-24T20:02:37.792Z,17.15
2017-09-24T20:05:06.127Z,17.03
2017-09-24T20:07:34.481Z,17.09
2017-09-24T20:10:03.584Z,17.07
2017-09-24T20:12:31.930Z,17.09
2017-09-24T20:15:00.293Z,17.11
2017-09-24T20:17:28.630Z,17.14
2017-09-24T20:19:56.968Z,17.07
2017-09-24T20:22:25.323Z,17.10
2017-09-24T20:24:54.429Z,17.11
2017-09-24T20:27:22.756Z,17.09
2017-09-24T20:29:51.888Z,17.09
2017-09-24T20:32:20.244Z,17.07
2017-09-24T20:34:48.615Z,17.11
2017-09-24T20:37:17.041Z,17.09
2017-09-24T20:39:45.391Z,17.04
2017-09-24T20:42:13.765Z,17.07
2017-09-24T20:44:42.102Z,17.07
2017-09-24T20:47:10.469Z,17.09
2017-09-24T20:49:38.807Z,17.01
2017-09-24T20:52:07.147Z,17.07
2017-09-24T20:54:35.513Z,17.07
2017-09-24T20:57:03.875Z,17.05
2017-09-24T20:59:32.223Z,17.08
2017-09-24T21:02:00.592Z,17.02
2017-09-24T21:04:29.688Z,17.01
2017-09-24T21:06:58.787Z,17.02
2017-09-24T21:09:27.918Z,17.02
2017-09-24T21:11:56.252Z,16.91
2017-09-24T21:14:24.591Z,16.93
2017-09-24T21:16:52.952Z,16.90
2017-09-24T21:19:21.280Z,16.77
2017-09-24T21:21:49.628Z,16.79
2017-09-24T21:24:18.035Z,16.85
2017-09-24T21:26:46.377Z,16.83
2017-09-24T21:29:14.738Z,16.83
2017-09-24T21:31:43.117Z,16.85
2017-09-24T21:34:11.460Z,16.79
2017-09-24T21:36:39.794Z,16.80
2017-09-24T21:39:08.159Z,16.82
2017-09-24T21:41:37.257Z,16.65
2017-09-24T21:44:05.665Z,16.70
2017-09-24T21:46:33.998Z,16.70
2017-09-24T21:49:03.103Z,16.62
2017-09-24T21:51:32.245Z,16.58
2017-09-24T21:54:00.595Z,16.67
2017-09-24T21:56:28.964Z,16.74
2017-09-24T21:58:58.072Z,16.70
2017-09-24T22:01:26.442Z,16.54
2017-09-24T22:03:55.548Z,16.33
2017-09-24T22:06:24.646Z,16.38
2017-09-24T22:08:53.768Z,16.41
2017-09-24T22:11:22.108Z,16.57
2017-09-24T22:13:51.240Z,16.67
2017-09-24T22:16:19.584Z,16.63
2017-09-24T22:18:47.938Z,16.49
2017-09-24T22:21:16.304Z,16.65
2017-09-24T22:23:45.404Z,16.71
2017-09-24T22:26:13.757Z,16.79
2017-09-24T22:28:42.123Z,16.84
2017-09-24T22:31:11.327Z,16.90
2017-09-24T22:33:40.445Z,16.96
2017-09-24T22:36:08.807Z,16.99
2017-09-24T22:38:37.160Z,16.90
2017-09-24T22:41:05.509Z,16.94
2017-09-24T22:43:33.875Z,16.93
2017-09-24T22:46:02.227Z,16.96
2017-09-24T22:48:30.565Z,16.98
2017-09-24T22:50:58.945Z,16.96
2017-09-24T23:08:44.148Z,16.87
2017-09-24T23:11:14.296Z,16.80
2017-09-24T23:13:43.402Z,16.75
2017-09-24T23:16:11.760Z,16.80
2017-09-24T23:18:40.873Z,16.81
2017-09-24T23:21:09.224Z,16.74
2017-09-24T23:23:37.583Z,16.83
2017-09-24T23:26:05.919Z,16.86
2017-09-24T23:28:34.267Z,16.90
2017-09-24T23:31:02.636Z,16.88
2017-09-24T23:33:30.985Z,16.87
2017-09-24T23:35:59.335Z,16.81
2017-09-24T23:38:28.465Z,16.81
2017-09-24T23:40:56.807Z,16.88
2017-09-24T23:43:25.903Z,16.87
2017-09-24T23:45:55.037Z,16.89
2017-09-24T23:48:23.375Z,16.95
2017-09-24T23:50:52.476Z,16.87
2017-09-24T23:53:21.600Z,16.90
2017-09-24T23:55:49.931Z,16.95
2017-09-24T23:58:18.275Z,16.98
